createdAt,value
2018-11-14T00:00:21.160Z,84.23
2018-11-14T00:05:13.757Z,84.36
2018-11-14T00:10:07.334Z,84.46
2018-11-14T00:14:59.957Z,84.11
2018-11-14T00:19:52.537Z,84.23
2018-11-14T00:24:45.265Z,83.69
2018-11-14T00:29:37.820Z,83.32
2018-11-14T00:34:30.444Z,83.39
2018-11-14T00:39:23.051Z,83.26
2018-11-14T00:44:15.607Z,83.05
2018-11-14T00:49:08.173Z,83.03
2018-11-14T00:54:00.787Z,83.00
2018-11-14T00:58:53.812Z,82.95
2018-11-14T01:03:46.416Z,82.92
2018-11-14T01:08:39.035Z,82.70
2018-11-14T01:13:31.625Z,82.77
2018-11-14T01:18:24.234Z,82.68
2018-11-14T01:23:16.859Z,83.43
2018-11-14T01:28:09.475Z,83.01
2018-11-14T01:33:02.055Z,82.71
2018-11-14T01:37:55.529Z,83.51
2018-11-14T01:42:49.389Z,83.17
2018-11-14T01:47:42.026Z,83.22
2018-11-14T01:52:34.669Z,83.32
2018-11-14T01:57:27.281Z,83.44
2018-11-14T02:02:20.147Z,83.49
2018-11-14T02:07:12.741Z,83.86
2018-11-14T02:12:05.522Z,84.47
2018-11-14T02:16:58.117Z,84.41
2018-11-14T02:21:50.684Z,84.66
2018-11-14T02:26:43.281Z,84.49
2018-11-14T02:31:35.876Z,84.68
2018-11-14T02:36:28.514Z,84.89
2018-11-14T02:41:21.162Z,85.13
2018-11-14T02:46:13.785Z,85.22
2018-11-14T02:51:19.867Z,85.54
2018-11-14T02:56:12.483Z,85.69
2018-11-14T03:01:05.403Z,85.68
2018-11-14T03:05:57.982Z,85.81
2018-11-14T03:10:50.617Z,86.01
2018-11-14T03:15:43.230Z,86.06
2018-11-14T03:20:35.846Z,86.39
2018-11-14T03:25:28.445Z,87.23
2018-11-14T03:30:21.095Z,87.32
2018-11-14T03:35:14.253Z,87.81
2018-11-14T03:40:09.161Z,87.32
2018-11-14T03:45:01.879Z,87.92
2018-11-14T03:49:54.469Z,88.00
2018-11-14T03:54:47.057Z,88.45
2018-11-14T03:59:39.642Z,88.64
2018-11-14T04:04:32.231Z,88.67
2018-11-14T04:09:24.865Z,88.67
2018-11-14T04:14:17.538Z,88.29
2018-11-14T04:19:10.156Z,88.98
2018-11-14T04:24:02.757Z,89.06
2018-11-14T04:28:55.374Z,89.61
2018-11-14T04:33:48.293Z,89.18
2018-11-14T04:38:40.904Z,89.22
2018-11-14T04:43:33.553Z,89.88
2018-11-14T04:48:26.450Z,90.16
2018-11-14T04:53:19.092Z,90.15
2018-11-14T04:58:11.749Z,89.98
2018-11-14T05:03:05.259Z,90.61
2018-11-14T05:07:57.919Z,91.00
2018-11-14T05:12:51.177Z,91.04
2018-11-14T05:17:44.481Z,91.42
2018-11-14T05:22:37.088Z,91.88
2018-11-14T05:27:29.826Z,92.01
2018-11-14T05:32:22.433Z,92.02
2018-11-14T05:37:15.204Z,92.11
2018-11-14T05:42:07.882Z,91.98
2018-11-14T05:47:00.528Z,92.10
2018-11-14T05:51:53.161Z,91.55
2018-11-14T05:56:45.762Z,92.24
2018-11-14T06:01:38.388Z,92.45
2018-11-14T06:06:31.257Z,92.53
2018-11-14T06:11:24.065Z,93.27
2018-11-14T06:16:16.643Z,92.85
2018-11-14T06:21:09.434Z,92.72
2018-11-14T06:26:02.174Z,92.97
2018-11-14T06:30:54.904Z,93.48
2018-11-14T06:35:47.569Z,93.02
2018-11-14T06:40:40.224Z,93.33
2018-11-14T06:45:33.540Z,93.20
2018-11-14T06:50:26.368Z,93.64
2018-11-14T06:55:19.643Z,93.66
2018-11-14T07:00:34.281Z,93.41
2018-11-14T07:05:26.938Z,93.19
2018-11-14T07:10:20.959Z,93.35
2018-11-14T07:15:15.896Z,93.53
2018-11-14T07:20:16.744Z,92.91
2018-11-14T07:25:09.413Z,92.94
2018-11-14T07:30:02.181Z,92.91
2018-11-14T07:34:54.857Z,93.21
2018-11-14T07:39:47.741Z,92.22
2018-11-14T07:44:40.605Z,91.86
2018-11-14T07:49:33.414Z,90.47
2018-11-14T07:54:26.424Z,89.89
2018-11-14T07:59:19.237Z,89.23
2018-11-14T08:04:12.086Z,87.87
2018-11-14T08:09:06.650Z,88.37
2018-11-14T08:13:59.418Z,87.66
2018-11-14T08:18:52.385Z,86.33
2018-11-14T08:23:45.184Z,86.62
2018-11-14T08:28:37.845Z,85.71
2018-11-14T08:33:30.534Z,84.63
2018-11-14T08:38:23.261Z,84.35
2018-11-14T08:43:15.970Z,83.65
2018-11-14T08:48:08.937Z,83.33
2018-11-14T08:53:01.784Z,81.88
2018-11-14T08:57:54.469Z,81.16
2018-11-14T09:02:47.632Z,80.12
2018-11-14T09:07:40.385Z,80.45
2018-11-14T09:12:33.154Z,81.05
2018-11-14T09:17:25.708Z,81.31
2018-11-14T09:22:18.361Z,80.39
2018-11-14T09:27:11.013Z,81.15
2018-11-14T09:32:03.609Z,81.29
2018-11-14T09:36:56.228Z,80.30
2018-11-14T09:41:48.820Z,80.36
2018-11-14T09:46:41.404Z,80.29
2018-11-14T09:51:34.561Z,78.72
2018-11-14T09:56:27.249Z,78.26
2018-11-14T10:01:19.973Z,77.59
2018-11-14T10:06:12.615Z,76.25
2018-11-14T10:11:05.671Z,74.86
2018-11-14T10:15:58.521Z,74.30
2018-11-14T10:20:51.336Z,72.16
2018-11-14T10:25:44.049Z,71.68
2018-11-14T10:30:36.771Z,71.20
2018-11-14T10:35:29.552Z,70.94
2018-11-14T10:40:25.448Z,70.00
2018-11-14T10:45:19.456Z,70.95
2018-11-14T10:50:14.889Z,70.32
2018-11-14T10:55:08.355Z,70.77
2018-11-14T11:00:01.033Z,71.75
2018-11-14T11:04:59.569Z,70.96
2018-11-14T11:09:58.178Z,71.26
2018-11-14T11:15:27.873Z,70.98
2018-11-14T11:20:20.462Z,73.18
2018-11-14T11:25:13.074Z,73.64
2018-11-14T11:30:08.421Z,73.83
2018-11-14T11:35:01.121Z,74.34
2018-11-14T11:39:53.697Z,73.76
2018-11-14T11:44:46.365Z,73.52
2018-11-14T11:49:39.033Z,73.51
2018-11-14T11:54:31.708Z,74.01
2018-11-14T11:59:24.347Z,74.06
2018-11-14T12:04:16.974Z,73.74
2018-11-14T12:09:10.850Z,73.25
2018-11-14T12:14:04.349Z,73.42
2018-11-14T12:18:57.020Z,73.42
2018-11-14T12:23:49.640Z,73.74
2018-11-14T12:28:42.284Z,73.33
2018-11-14T12:33:34.916Z,73.88
2018-11-14T12:38:27.559Z,73.68
2018-11-14T12:43:20.430Z,73.07
2018-11-14T12:48:13.196Z,74.09
2018-11-14T12:53:05.955Z,74.23
2018-11-14T12:57:58.713Z,74.85
2018-11-14T13:02:51.353Z,75.65
2018-11-14T13:07:44.454Z,75.69
2018-11-14T13:12:37.119Z,75.63
2018-11-14T13:17:30.296Z,76.23
2018-11-14T13:22:22.955Z,76.41
2018-11-14T13:27:15.617Z,75.99
2018-11-14T13:32:08.586Z,76.27
2018-11-14T13:37:01.277Z,74.96
2018-11-14T13:41:53.919Z,74.20
2018-11-14T13:46:46.561Z,73.37
2018-11-14T13:51:39.337Z,73.12
2018-11-14T13:56:32.022Z,72.32
2018-11-14T14:01:24.751Z,72.87
2018-11-14T14:06:17.538Z,72.29
2018-11-14T14:11:10.261Z,72.17
2018-11-14T14:16:02.913Z,71.89
2018-11-14T14:20:55.562Z,71.65
2018-11-14T14:25:48.217Z,72.05
2018-11-14T14:30:40.894Z,72.54
2018-11-14T14:35:33.444Z,72.47
2018-11-14T14:40:26.013Z,72.46
2018-11-14T14:45:22.086Z,72.66
2018-11-14T14:50:15.978Z,72.44
2018-11-14T14:55:12.958Z,73.16
2018-11-14T15:00:11.258Z,73.42
2018-11-14T15:05:04.737Z,73.77
2018-11-14T15:09:57.365Z,73.69
2018-11-14T15:14:50.098Z,74.29
2018-11-14T15:19:42.801Z,74.17
2018-11-14T15:24:35.498Z,74.92
2018-11-14T15:29:28.072Z,74.53
2018-11-14T15:34:20.704Z,75.04
2018-11-14T15:39:13.277Z,75.60
2018-11-14T15:44:05.990Z,75.65
2018-11-14T15:48:58.874Z,75.56
2018-11-14T15:53:51.610Z,76.13
2018-11-14T15:58:44.388Z,76.25
2018-11-14T16:03:37.140Z,76.48
2018-11-14T16:08:29.732Z,76.71
2018-11-14T16:13:22.476Z,76.86
2018-11-14T16:18:15.755Z,77.47
2018-11-14T16:23:08.445Z,77.44
2018-11-14T16:28:01.854Z,77.88
2018-11-14T16:32:55.795Z,77.56
2018-11-14T16:37:48.554Z,78.29
2018-11-14T16:42:41.241Z,77.95
2018-11-14T16:47:34.012Z,78.42
2018-11-14T16:52:26.762Z,78.54
2018-11-14T16:57:19.566Z,78.82
2018-11-14T17:02:12.313Z,78.84
2018-11-14T17:07:05.132Z,78.57
2018-11-14T17:11:57.876Z,79.00
2018-11-14T17:16:50.562Z,79.09
2018-11-14T17:21:43.181Z,79.07
2018-11-14T17:26:35.862Z,79.40
2018-11-14T17:31:28.488Z,79.41
2018-11-14T17:36:21.110Z,79.96
2018-11-14T17:41:13.960Z,79.71
2018-11-14T17:46:06.908Z,79.95
2018-11-14T17:50:59.945Z,80.06
2018-11-14T17:55:52.659Z,80.46
2018-11-14T18:00:45.208Z,80.50
2018-11-14T18:05:37.917Z,80.68
2018-11-14T18:10:31.245Z,80.41
2018-11-14T18:15:23.884Z,80.95
2018-11-14T18:20:18.704Z,81.42
2018-11-14T18:25:12.261Z,81.50
2018-11-14T18:30:09.569Z,81.69
2018-11-14T18:35:02.559Z,81.42
2018-11-14T18:39:55.209Z,81.69
2018-11-14T18:44:48.018Z,81.55
2018-11-14T18:49:47.229Z,82.04
2018-11-14T18:54:50.076Z,82.21
2018-11-14T18:59:47.933Z,82.23
2018-11-14T19:04:40.870Z,82.42
2018-11-14T19:09:33.546Z,81.81
2018-11-14T19:14:26.462Z,82.31
2018-11-14T19:19:19.090Z,82.15
2018-11-14T19:24:11.607Z,82.46
2018-11-14T19:29:04.536Z,82.56
2018-11-14T19:33:57.103Z,82.94
2018-11-14T19:38:49.816Z,83.01
2018-11-14T19:43:42.536Z,83.22
2018-11-14T19:48:35.234Z,83.30
2018-11-14T19:53:27.869Z,83.19
2018-11-14T19:58:20.543Z,83.55
2018-11-14T20:03:13.198Z,83.26
2018-11-14T20:08:05.964Z,83.28
2018-11-14T20:12:58.590Z,83.50
2018-11-14T20:17:51.537Z,83.46
2018-11-14T20:22:44.701Z,83.52
2018-11-14T20:27:37.861Z,83.63
2018-11-14T20:32:30.513Z,84.00
2018-11-14T20:37:23.281Z,84.00
2018-11-14T20:42:15.949Z,84.17
2018-11-14T20:47:08.630Z,84.47
2018-11-14T20:52:01.309Z,84.26
2018-11-14T20:56:53.964Z,84.04
2018-11-14T21:01:46.541Z,84.40
2018-11-14T21:06:39.311Z,84.11
2018-11-14T21:11:32.146Z,84.76
2018-11-14T21:16:24.962Z,84.63
2018-11-14T21:21:17.560Z,84.88
2018-11-14T21:26:10.220Z,85.23
2018-11-14T21:31:04.013Z,85.42
2018-11-14T21:35:56.965Z,85.12
2018-11-14T21:40:49.629Z,84.89
2018-11-14T21:45:42.275Z,85.63
2018-11-14T21:50:35.076Z,85.01
2018-11-14T21:55:27.745Z,85.31
2018-11-14T22:00:21.799Z,85.59
2018-11-14T22:05:14.505Z,85.19
2018-11-14T22:10:10.349Z,85.58
2018-11-14T22:15:02.953Z,85.34
2018-11-14T22:19:55.601Z,85.06
2018-11-14T22:24:48.364Z,85.26
2018-11-14T22:29:41.042Z,85.64
2018-11-14T22:34:34.130Z,85.83
2018-11-14T22:39:26.794Z,85.85
2018-11-14T22:44:19.518Z,85.74
2018-11-14T22:49:12.206Z,85.89
2018-11-14T22:54:04.929Z,86.08
2018-11-14T22:58:57.641Z,85.86
2018-11-14T23:03:50.431Z,85.81
2018-11-14T23:08:51.623Z,86.00
2018-11-14T23:18:53.658Z,86.02
2018-11-14T23:23:56.087Z,86.08
2018-11-14T23:28:49.813Z,86.53
2018-11-14T23:33:42.496Z,85.44
2018-11-14T23:38:37.871Z,86.22
2018-11-14T23:43:35.652Z,85.92
2018-11-14T23:48:32.775Z,85.53
2018-11-14T23:53:42.142Z,85.73
2018-11-14T23:58:37.042Z,85.74
